createdAt,value
2023-02-14T00:01:25.307Z,22.27
2023-02-14T00:03:49.419Z,18.40
2023-02-14T00:06:13.399Z,16.80
2023-02-14T00:08:35.074Z,16.30
2023-02-14T00:10:56.710Z,22.37
2023-02-14T00:13:18.400Z,22.40
2023-02-14T00:15:39.824Z,31.50
2023-02-14T00:18:02.118Z,32.43
2023-02-14T00:20:24.240Z,26.90
2023-02-14T00:22:45.675Z,22.40
2023-02-14T00:25:07.492Z,19.10
2023-02-14T00:27:29.056Z,18.70
2023-02-14T00:29:50.508Z,22.63
2023-02-14T00:32:12.012Z,18.17
2023-02-14T00:34:36.449Z,16.73
2023-02-14T00:36:58.748Z,15.73
2023-02-14T00:39:20.396Z,16.53
2023-02-14T00:41:42.679Z,16.97
2023-02-14T00:44:04.896Z,17.63
2023-02-14T00:46:26.985Z,17.37
2023-02-14T00:48:48.703Z,16.27
2023-02-14T00:51:10.728Z,15.43
2023-02-14T00:53:32.222Z,14.77
2023-02-14T00:55:53.658Z,15.37
2023-02-14T00:58:15.131Z,14.17
2023-02-14T01:00:36.649Z,15.47
2023-02-14T01:02:58.069Z,15.60
2023-02-14T01:05:19.577Z,15.13
2023-02-14T01:07:41.046Z,17.27
2023-02-14T01:10:02.488Z,13.77
2023-02-14T01:12:23.912Z,13.73
2023-02-14T01:14:45.413Z,14.07
2023-02-14T01:17:06.847Z,19.77
2023-02-14T01:19:28.279Z,18.80
2023-02-14T01:21:49.758Z,14.60
2023-02-14T01:24:12.514Z,14.67
2023-02-14T01:26:35.321Z,13.90
2023-02-14T01:28:56.942Z,12.43
2023-02-14T01:31:22.261Z,13.07
2023-02-14T01:33:46.271Z,11.70
2023-02-14T01:36:08.066Z,12.73
2023-02-14T01:38:29.647Z,12.20
2023-02-14T01:40:51.083Z,13.37
2023-02-14T01:43:15.921Z,12.80
2023-02-14T01:45:37.428Z,13.00
2023-02-14T01:47:59.371Z,14.13
2023-02-14T01:50:26.600Z,14.23
2023-02-14T01:52:56.652Z,13.10
2023-02-14T01:55:22.388Z,12.20
2023-02-14T01:57:48.224Z,14.37
2023-02-14T02:00:29.240Z,13.73
2023-02-14T02:02:51.106Z,13.17
2023-02-14T02:05:14.632Z,12.63
2023-02-14T02:07:36.553Z,14.73
2023-02-14T02:10:04.496Z,15.00
2023-02-14T02:12:26.320Z,14.87
2023-02-14T02:14:50.774Z,14.47
2023-02-14T02:17:36.523Z,14.27
2023-02-14T02:20:22.923Z,16.53
2023-02-14T02:23:19.436Z,13.03
2023-02-14T02:25:59.766Z,13.60
2023-02-14T02:28:53.386Z,14.23
2023-02-14T02:31:37.444Z,13.90
2023-02-14T02:34:32.795Z,14.80
2023-02-14T02:37:02.297Z,12.87
2023-02-14T02:39:48.612Z,14.67
2023-02-14T02:42:34.675Z,15.97
2023-02-14T02:45:02.117Z,12.13
2023-02-14T02:47:40.621Z,14.03
2023-02-14T02:50:42.586Z,10.80
2023-02-14T02:53:21.979Z,12.23
2023-02-14T02:56:17.506Z,12.10
2023-02-14T02:58:46.889Z,11.90
2023-02-14T03:01:22.195Z,11.20
2023-02-14T03:04:07.181Z,14.23
2023-02-14T03:06:30.616Z,13.77
2023-02-14T03:08:52.081Z,13.43
2023-02-14T03:11:14.017Z,13.70
2023-02-14T03:13:58.669Z,12.50
2023-02-14T03:16:38.638Z,12.10
2023-02-14T03:19:47.672Z,11.37
2023-02-14T03:22:31.273Z,10.90
2023-02-14T03:25:11.229Z,11.30
2023-02-14T03:27:41.417Z,14.40
2023-02-14T03:30:13.993Z,12.73
2023-02-14T03:32:46.717Z,13.67
2023-02-14T03:35:18.571Z,13.73
2023-02-14T03:38:07.420Z,15.17
2023-02-14T03:40:36.304Z,14.30
2023-02-14T03:43:10.453Z,10.73
2023-02-14T03:45:39.717Z,9.70
2023-02-14T03:48:06.316Z,10.10
2023-02-14T03:50:29.534Z,9.73
2023-02-14T03:52:53.833Z,13.97
2023-02-14T03:55:21.070Z,13.60
2023-02-14T03:57:49.459Z,12.50
2023-02-14T04:00:11.853Z,11.93
2023-02-14T04:02:56.413Z,11.30
2023-02-14T04:05:23.603Z,10.40
2023-02-14T04:07:53.408Z,11.67
2023-02-14T04:10:15.399Z,10.90
2023-02-14T04:12:38.166Z,23.33
2023-02-14T04:14:59.720Z,12.47
2023-02-14T04:17:39.847Z,12.30
2023-02-14T04:20:01.274Z,12.37
2023-02-14T04:22:22.801Z,14.10
2023-02-14T04:24:44.806Z,13.73
2023-02-14T04:27:12.307Z,13.67
2023-02-14T04:29:33.740Z,13.43
2023-02-14T04:31:55.446Z,15.10
2023-02-14T04:34:16.899Z,12.90
2023-02-14T04:36:38.363Z,12.67
2023-02-14T04:38:59.800Z,17.07
2023-02-14T04:41:21.225Z,17.57
2023-02-14T04:43:42.645Z,16.37
2023-02-14T04:46:04.252Z,15.60
2023-02-14T04:48:25.706Z,14.70
2023-02-14T04:50:52.526Z,16.63
2023-02-14T04:53:13.971Z,17.87
2023-02-14T04:55:35.407Z,14.53
2023-02-14T04:57:56.887Z,23.00
2023-02-14T05:00:19.015Z,14.67
2023-02-14T05:02:40.648Z,13.07
2023-02-14T05:05:02.272Z,11.97
2023-02-14T05:07:23.801Z,10.70
2023-02-14T05:09:45.301Z,11.93
2023-02-14T05:12:06.830Z,16.23
2023-02-14T05:14:28.513Z,12.97
2023-02-14T05:16:49.956Z,11.90
2023-02-14T05:19:11.468Z,11.40
2023-02-14T05:21:33.240Z,10.40
2023-02-14T05:23:54.687Z,11.07
2023-02-14T05:26:16.162Z,12.13
2023-02-14T05:28:37.628Z,11.63
2023-02-14T05:30:59.490Z,12.27
2023-02-14T05:33:21.025Z,12.30
2023-02-14T05:35:42.560Z,14.00
2023-02-14T05:38:04.644Z,13.17
2023-02-14T05:40:27.935Z,17.60
2023-02-14T05:42:49.430Z,20.13
2023-02-14T05:45:12.051Z,13.03
2023-02-14T05:47:33.558Z,10.47
2023-02-14T05:49:55.002Z,10.23
2023-02-14T05:52:16.643Z,9.60
2023-02-14T05:54:38.132Z,9.37
2023-02-14T05:56:59.599Z,10.30
2023-02-14T05:59:21.085Z,10.73
2023-02-14T06:01:42.531Z,9.27
2023-02-14T06:04:04.066Z,12.60
2023-02-14T06:06:25.706Z,19.27
2023-02-14T06:08:47.162Z,20.93
2023-02-14T06:11:08.631Z,15.90
2023-02-14T06:13:30.199Z,13.53
2023-02-14T06:15:51.614Z,11.70
2023-02-14T06:18:13.063Z,11.03
2023-02-14T06:20:34.732Z,9.27
2023-02-14T06:22:57.173Z,11.70
2023-02-14T06:25:19.075Z,12.47
2023-02-14T06:27:40.556Z,11.00
2023-02-14T06:30:02.437Z,11.77
2023-02-14T06:32:23.927Z,11.87
2023-02-14T06:34:45.690Z,11.37
2023-02-14T06:37:07.930Z,10.70
2023-02-14T06:39:29.357Z,12.13
2023-02-14T06:41:50.788Z,33.33
2023-02-14T06:44:12.250Z,17.30
2023-02-14T06:46:33.802Z,17.67
2023-02-14T06:48:55.267Z,25.07
2023-02-14T06:51:16.727Z,24.17
2023-02-14T06:53:38.204Z,16.73
2023-02-14T06:55:59.756Z,20.57
2023-02-14T06:58:21.300Z,12.43
2023-02-14T07:00:42.739Z,13.40
2023-02-14T07:03:04.240Z,12.67
2023-02-14T07:05:25.752Z,11.07
2023-02-14T07:07:47.794Z,11.93
2023-02-14T07:10:09.487Z,13.43
2023-02-14T07:12:30.937Z,12.63
2023-02-14T07:14:52.400Z,13.37
2023-02-14T07:17:13.873Z,14.30
2023-02-14T07:19:35.408Z,13.67
2023-02-14T07:21:56.835Z,14.67
2023-02-14T07:24:18.257Z,13.90
2023-02-14T07:26:39.730Z,10.20
2023-02-14T07:29:01.273Z,11.70
2023-02-14T07:31:23.542Z,12.07
2023-02-14T07:33:45.234Z,10.60
2023-02-14T07:36:08.472Z,10.63
2023-02-14T07:38:30.584Z,11.43
2023-02-14T07:40:53.818Z,11.40
2023-02-14T07:43:15.251Z,12.23
2023-02-14T07:45:36.708Z,11.67
2023-02-14T07:48:02.023Z,10.97
2023-02-14T07:50:23.920Z,11.37
2023-02-14T07:52:45.700Z,10.27
2023-02-14T07:55:07.785Z,10.17
2023-02-14T07:57:29.223Z,11.30
2023-02-14T07:59:50.639Z,10.67
2023-02-14T08:02:12.818Z,11.57
2023-02-14T08:04:34.293Z,11.23
2023-02-14T08:06:55.887Z,10.30
2023-02-14T08:09:24.680Z,10.80
2023-02-14T08:12:04.825Z,11.87
2023-02-14T08:14:26.297Z,12.10
2023-02-14T08:16:47.939Z,11.90
2023-02-14T08:19:09.374Z,12.87
2023-02-14T08:21:31.158Z,12.03
2023-02-14T08:23:52.615Z,13.97
2023-02-14T08:26:14.288Z,13.23
2023-02-14T08:28:35.857Z,11.03
2023-02-14T08:30:57.758Z,11.40
2023-02-14T08:33:20.200Z,11.43
2023-02-14T08:35:41.704Z,10.50
2023-02-14T08:38:03.843Z,10.60
2023-02-14T08:40:25.556Z,9.57
2023-02-14T08:42:47.220Z,12.03
2023-02-14T08:45:09.305Z,15.97
2023-02-14T08:47:38.244Z,11.23
2023-02-14T08:49:59.813Z,10.73
2023-02-14T08:52:21.278Z,14.87
2023-02-14T08:54:42.929Z,11.40
2023-02-14T08:57:04.420Z,12.73
2023-02-14T08:59:25.986Z,11.90
2023-02-14T09:01:47.435Z,11.97
2023-02-14T09:04:08.985Z,11.17
2023-02-14T09:06:30.512Z,10.80
2023-02-14T09:08:53.601Z,10.97
2023-02-14T09:11:18.701Z,11.90
2023-02-14T09:13:41.084Z,12.30
2023-02-14T09:16:07.652Z,12.23
2023-02-14T09:18:29.145Z,15.80
2023-02-14T09:20:50.617Z,14.07
2023-02-14T09:23:12.070Z,11.83
2023-02-14T09:25:33.491Z,11.60
2023-02-14T09:27:55.020Z,11.50
2023-02-14T09:30:16.713Z,10.73
2023-02-14T09:32:38.224Z,11.87
2023-02-14T09:35:18.358Z,11.13
2023-02-14T09:37:39.831Z,11.23
2023-02-14T09:40:01.285Z,11.40
2023-02-14T09:42:41.578Z,10.80
2023-02-14T09:45:12.061Z,11.17
2023-02-14T09:47:40.361Z,12.03
2023-02-14T09:50:06.374Z,11.37
2023-02-14T09:52:30.812Z,11.97
2023-02-14T09:54:57.700Z,11.93
2023-02-14T09:57:38.658Z,11.93
2023-02-14T10:00:28.359Z,11.33
2023-02-14T10:03:11.400Z,12.00
2023-02-14T10:05:41.434Z,11.03
2023-02-14T10:08:21.619Z,11.43
2023-02-14T10:10:46.527Z,10.70
2023-02-14T10:13:30.144Z,14.07
2023-02-14T10:16:01.604Z,11.33
2023-02-14T10:18:38.190Z,10.07
2023-02-14T10:21:02.631Z,9.57
2023-02-14T10:23:34.392Z,10.27
2023-02-14T10:26:08.073Z,10.17
2023-02-14T10:28:40.722Z,9.27
2023-02-14T10:31:23.732Z,10.43
2023-02-14T10:33:57.094Z,10.73
2023-02-14T10:36:49.462Z,10.83
2023-02-14T10:39:16.742Z,11.57
2023-02-14T10:41:56.787Z,10.40
2023-02-14T10:44:38.965Z,9.50
2023-02-14T10:47:18.856Z,9.63
2023-02-14T10:49:59.267Z,11.30
2023-02-14T10:52:50.024Z,10.17
2023-02-14T10:55:32.357Z,10.37
2023-02-14T10:57:56.297Z,9.07
2023-02-14T11:00:24.056Z,11.30
2023-02-14T11:02:47.559Z,10.60
2023-02-14T11:05:30.025Z,9.07
2023-02-14T11:07:51.455Z,9.67
2023-02-14T11:10:14.639Z,11.07
2023-02-14T11:12:41.188Z,9.47
2023-02-14T11:15:14.917Z,18.87
2023-02-14T11:17:37.372Z,15.30
2023-02-14T11:20:09.580Z,13.47
2023-02-14T11:22:33.416Z,24.47
2023-02-14T11:25:07.281Z,17.43
2023-02-14T11:27:28.766Z,9.37
2023-02-14T11:29:52.358Z,13.07
2023-02-14T11:32:23.200Z,10.00
2023-02-14T11:34:54.214Z,9.87
2023-02-14T11:37:25.804Z,12.67
2023-02-14T11:39:47.930Z,11.77
2023-02-14T11:42:12.614Z,13.03
2023-02-14T11:44:36.859Z,12.63
2023-02-14T11:47:17.824Z,9.40
2023-02-14T11:49:39.298Z,9.03
2023-02-14T11:52:10.549Z,10.73
2023-02-14T11:54:37.485Z,10.03
2023-02-14T11:57:12.623Z,9.80
2023-02-14T11:59:42.340Z,9.73
2023-02-14T12:02:32.659Z,9.57
2023-02-14T12:05:21.024Z,10.03
2023-02-14T12:07:44.970Z,9.70
2023-02-14T12:10:15.741Z,10.67
2023-02-14T12:12:37.420Z,10.47
2023-02-14T12:15:43.414Z,9.17
2023-02-14T12:18:29.653Z,9.93
2023-02-14T12:21:00.815Z,9.33
2023-02-14T12:23:34.992Z,9.37
2023-02-14T12:26:02.761Z,10.17
2023-02-14T12:28:39.491Z,8.90
2023-02-14T12:31:01.351Z,8.73
2023-02-14T12:33:25.948Z,9.10
2023-02-14T12:36:00.927Z,11.53
2023-02-14T12:38:38.873Z,9.67
2023-02-14T12:41:18.938Z,10.30
2023-02-14T12:43:54.704Z,10.57
2023-02-14T12:46:53.950Z,9.40
2023-02-14T12:49:37.349Z,9.43
2023-02-14T12:52:27.752Z,9.10
2023-02-14T12:55:27.165Z,9.10
2023-02-14T12:58:01.630Z,8.67
2023-02-14T13:00:45.007Z,8.83
2023-02-14T13:03:44.738Z,8.43
2023-02-14T13:06:28.185Z,8.87
2023-02-14T13:09:25.809Z,8.73
2023-02-14T13:12:16.808Z,9.20
2023-02-14T13:15:01.190Z,9.27
2023-02-14T13:17:29.644Z,8.93
2023-02-14T13:19:59.831Z,9.07
2023-02-14T13:22:25.116Z,9.13
2023-02-14T13:24:50.529Z,9.27
2023-02-14T13:27:27.784Z,8.83
2023-02-14T13:29:53.158Z,9.30
2023-02-14T13:32:18.807Z,8.73
2023-02-14T13:34:46.657Z,9.00
2023-02-14T13:37:12.599Z,9.33
2023-02-14T13:39:38.851Z,8.67
2023-02-14T13:42:01.154Z,9.40
2023-02-14T13:44:46.136Z,9.40
2023-02-14T13:47:16.311Z,9.20
2023-02-14T13:49:46.164Z,9.87
2023-02-14T13:52:09.763Z,9.33
2023-02-14T13:54:33.173Z,8.63
2023-02-14T13:56:54.822Z,9.17
2023-02-14T13:59:34.363Z,8.67
2023-02-14T14:01:56.205Z,8.37
2023-02-14T14:04:30.337Z,8.20
2023-02-14T14:07:03.947Z,8.23
2023-02-14T14:09:40.392Z,8.73
2023-02-14T14:12:01.946Z,8.10
2023-02-14T14:14:30.339Z,7.87
2023-02-14T14:16:59.816Z,8.37
2023-02-14T14:19:21.291Z,8.23
2023-02-14T14:21:59.458Z,8.20
2023-02-14T14:24:25.016Z,7.87
2023-02-14T14:26:57.409Z,7.30
2023-02-14T14:29:38.350Z,7.80
2023-02-14T14:32:11.559Z,8.20
2023-02-14T14:34:33.029Z,10.37
2023-02-14T14:37:03.281Z,11.90
2023-02-14T14:39:32.172Z,9.13
2023-02-14T14:41:54.289Z,10.63
2023-02-14T14:44:16.519Z,10.30
2023-02-14T14:46:38.133Z,12.50
2023-02-14T14:48:59.682Z,9.03
2023-02-14T14:51:30.502Z,9.53
2023-02-14T14:53:58.897Z,10.63
2023-02-14T14:56:24.178Z,11.67
2023-02-14T14:58:45.807Z,9.63
2023-02-14T15:01:13.138Z,9.03
2023-02-14T15:03:34.791Z,8.37
2023-02-14T15:06:09.500Z,9.00
2023-02-14T15:08:32.083Z,8.43
2023-02-14T15:10:56.935Z,9.00
2023-02-14T15:13:37.233Z,8.90
2023-02-14T15:15:58.882Z,8.57
2023-02-14T15:18:21.484Z,8.40
2023-02-14T15:20:48.144Z,8.00
2023-02-14T15:23:19.014Z,8.40
2023-02-14T15:25:44.578Z,8.27
2023-02-14T15:28:06.071Z,7.63
2023-02-14T15:30:34.062Z,7.33
2023-02-14T15:32:56.410Z,7.70
2023-02-14T15:35:30.677Z,7.67
2023-02-14T15:37:52.825Z,7.67
2023-02-14T15:40:20.005Z,8.00
2023-02-14T15:42:44.741Z,8.03
2023-02-14T15:45:26.144Z,7.73
2023-02-14T15:47:51.971Z,7.30
2023-02-14T15:50:27.691Z,8.50
2023-02-14T15:52:49.221Z,8.47
2023-02-14T15:55:12.068Z,8.93
2023-02-14T15:57:34.754Z,8.97
2023-02-14T15:59:56.238Z,8.73
2023-02-14T16:02:29.815Z,8.00
2023-02-14T16:04:51.323Z,9.63
2023-02-14T16:07:29.218Z,8.40
2023-02-14T16:10:12.064Z,8.10
2023-02-14T16:12:36.304Z,8.70
2023-02-14T16:15:21.911Z,8.27
2023-02-14T16:17:44.120Z,9.03
2023-02-14T16:20:24.201Z,10.20
2023-02-14T16:22:45.631Z,9.13
2023-02-14T16:25:08.376Z,8.80
2023-02-14T16:27:29.827Z,8.33
2023-02-14T16:29:51.266Z,8.53
2023-02-14T16:32:20.060Z,8.37
2023-02-14T16:34:41.674Z,9.17
2023-02-14T16:37:08.503Z,8.33
2023-02-14T16:39:32.000Z,8.53
2023-02-14T16:41:56.176Z,8.60
2023-02-14T16:44:19.530Z,8.43
2023-02-14T16:46:43.087Z,8.07
2023-02-14T16:49:04.623Z,8.43
2023-02-14T16:51:29.445Z,7.67
2023-02-14T16:53:51.145Z,8.73
2023-02-14T16:56:20.336Z,9.37
2023-02-14T16:58:41.951Z,7.07
2023-02-14T17:01:03.999Z,7.00
2023-02-14T17:03:25.591Z,7.37
2023-02-14T17:05:47.508Z,7.17
2023-02-14T17:08:11.734Z,8.10
2023-02-14T17:10:34.032Z,6.90
2023-02-14T17:12:59.101Z,7.43
2023-02-14T17:15:24.467Z,6.63
2023-02-14T17:17:49.100Z,7.27
2023-02-14T17:20:12.445Z,6.70
2023-02-14T17:22:35.566Z,6.80
2023-02-14T17:24:57.255Z,6.47
2023-02-14T17:27:18.747Z,6.87
2023-02-14T17:29:40.200Z,6.87
2023-02-14T17:32:02.104Z,7.53
2023-02-14T17:34:23.656Z,7.50
2023-02-14T17:36:45.187Z,7.57
2023-02-14T17:39:08.251Z,6.47
2023-02-14T17:41:29.692Z,6.03
2023-02-14T17:43:55.544Z,6.23
2023-02-14T17:46:20.766Z,5.70
2023-02-14T17:48:45.493Z,6.00
2023-02-14T17:51:08.697Z,6.20
2023-02-14T17:53:30.145Z,6.17
2023-02-14T17:55:52.277Z,5.67
2023-02-14T17:58:13.730Z,6.47
2023-02-14T18:00:35.172Z,6.50
2023-02-14T18:02:56.637Z,6.00
2023-02-14T18:05:18.171Z,7.13
2023-02-14T18:07:39.957Z,6.63
2023-02-14T18:10:01.497Z,6.07
2023-02-14T18:12:22.964Z,5.97
2023-02-14T18:14:44.397Z,6.03
2023-02-14T18:17:06.131Z,6.37
2023-02-14T18:19:28.624Z,6.27
2023-02-14T18:21:50.142Z,7.03
2023-02-14T18:24:12.254Z,6.97
2023-02-14T18:26:35.446Z,7.07
2023-02-14T18:28:57.976Z,7.10
2023-02-14T18:31:20.406Z,7.87
2023-02-14T18:33:42.404Z,8.03
2023-02-14T18:36:12.721Z,7.00
2023-02-14T18:38:35.142Z,6.80
2023-02-14T18:41:02.206Z,7.20
2023-02-14T18:43:23.792Z,7.17
2023-02-14T18:45:45.274Z,6.63
2023-02-14T18:48:06.830Z,6.73
2023-02-14T18:50:28.270Z,7.30
2023-02-14T18:52:49.671Z,7.50
2023-02-14T18:55:13.381Z,7.37
2023-02-14T18:57:35.219Z,6.73
2023-02-14T18:59:56.747Z,7.77
2023-02-14T19:02:18.269Z,8.10
2023-02-14T19:04:39.832Z,7.30
2023-02-14T19:07:01.286Z,6.53
2023-02-14T19:09:22.937Z,7.63
2023-02-14T19:11:45.216Z,7.10
2023-02-14T19:14:10.308Z,8.10
2023-02-14T19:16:33.812Z,6.70
2023-02-14T19:18:55.729Z,7.73
2023-02-14T19:21:30.433Z,7.53
2023-02-14T19:23:53.946Z,7.90
2023-02-14T19:26:21.301Z,7.37
2023-02-14T19:28:43.571Z,7.40
2023-02-14T19:31:05.123Z,7.60
2023-02-14T19:33:26.637Z,7.90
2023-02-14T19:35:50.209Z,7.37
2023-02-14T19:38:11.618Z,8.43
2023-02-14T19:40:33.093Z,8.60
2023-02-14T19:42:54.548Z,7.23
2023-02-14T19:45:15.979Z,7.23
2023-02-14T19:47:46.698Z,7.20
2023-02-14T19:50:09.075Z,7.70
2023-02-14T19:52:30.637Z,7.27
2023-02-14T19:54:52.085Z,8.80
2023-02-14T19:57:14.302Z,9.30
2023-02-14T19:59:35.756Z,9.23
2023-02-14T20:01:58.392Z,8.40
2023-02-14T20:04:23.236Z,8.77
2023-02-14T20:06:45.671Z,10.23
2023-02-14T20:09:08.503Z,12.33
2023-02-14T20:11:49.830Z,11.80
2023-02-14T20:14:11.308Z,13.13
2023-02-14T20:16:35.302Z,8.73
2023-02-14T20:18:56.942Z,8.93
2023-02-14T20:21:24.532Z,7.63
2023-02-14T20:23:45.987Z,8.37
2023-02-14T20:26:14.664Z,8.90
2023-02-14T20:28:36.119Z,7.93
2023-02-14T20:30:57.604Z,8.00
2023-02-14T20:33:19.126Z,8.53
2023-02-14T20:35:40.794Z,8.40
2023-02-14T20:38:02.802Z,7.90
2023-02-14T20:40:24.302Z,8.57
2023-02-14T20:42:48.867Z,9.13
2023-02-14T20:45:10.848Z,9.63
2023-02-14T20:47:32.289Z,9.07
2023-02-14T20:49:53.741Z,8.33
2023-02-14T20:52:17.921Z,8.87
2023-02-14T20:54:39.771Z,9.07
2023-02-14T20:57:01.249Z,8.30
2023-02-14T20:59:26.948Z,8.37
2023-02-14T21:01:48.518Z,9.13
2023-02-14T21:04:10.125Z,8.47
2023-02-14T21:06:34.905Z,8.23
2023-02-14T21:08:57.587Z,8.90
2023-02-14T21:11:20.704Z,8.00
2023-02-14T21:13:42.344Z,8.37
2023-02-14T21:16:03.865Z,8.90
2023-02-14T21:18:25.340Z,8.80
2023-02-14T21:20:46.824Z,8.60
2023-02-14T21:23:08.270Z,8.50
2023-02-14T21:25:32.185Z,7.90
2023-02-14T21:27:54.109Z,8.90
2023-02-14T21:30:15.590Z,8.67
2023-02-14T21:32:37.024Z,8.90
2023-02-14T21:34:58.584Z,9.03
2023-02-14T21:37:20.030Z,9.13
2023-02-14T21:39:41.745Z,8.50
2023-02-14T21:42:04.350Z,8.13
2023-02-14T21:44:44.179Z,8.50
2023-02-14T21:47:05.773Z,8.93
2023-02-14T21:49:46.255Z,9.23
2023-02-14T21:52:07.657Z,8.63
2023-02-14T21:54:29.204Z,8.47
2023-02-14T21:56:50.598Z,9.20
2023-02-14T21:59:12.696Z,8.23
2023-02-14T22:01:36.411Z,9.30
2023-02-14T22:03:59.150Z,8.30
2023-02-14T22:06:21.655Z,7.80
2023-02-14T22:08:43.529Z,8.03
2023-02-14T22:11:06.927Z,8.47
2023-02-14T22:13:28.357Z,8.33
2023-02-14T22:15:49.989Z,9.23
2023-02-14T22:18:11.491Z,8.20
2023-02-14T22:20:32.938Z,8.47
2023-02-14T22:22:54.352Z,8.93
2023-02-14T22:25:15.917Z,8.73
2023-02-14T22:27:39.555Z,8.90
2023-02-14T22:30:01.061Z,9.10
2023-02-14T22:32:22.697Z,9.07
2023-02-14T22:34:44.378Z,8.17
2023-02-14T22:37:05.819Z,8.80
2023-02-14T22:39:27.397Z,9.20
2023-02-14T22:41:48.802Z,9.07
2023-02-14T22:44:10.510Z,8.67
2023-02-14T22:46:32.698Z,9.13
2023-02-14T22:48:55.919Z,8.20
2023-02-14T22:51:24.878Z,8.97
2023-02-14T22:53:47.276Z,9.20
2023-02-14T22:56:10.984Z,8.97
2023-02-14T22:58:32.410Z,9.90
2023-02-14T23:00:53.903Z,9.90
2023-02-14T23:05:38.038Z,9.33
2023-02-14T23:07:59.438Z,9.47
2023-02-14T23:10:20.906Z,9.33
2023-02-14T23:13:00.724Z,9.50
2023-02-14T23:15:40.591Z,9.20
2023-02-14T23:18:21.059Z,9.37
2023-02-14T23:21:01.132Z,8.93
2023-02-14T23:23:22.561Z,8.80
2023-02-14T23:25:43.996Z,9.50
2023-02-14T23:28:05.421Z,9.10
2023-02-14T23:30:26.892Z,8.80
2023-02-14T23:32:48.444Z,8.00
2023-02-14T23:35:09.973Z,9.00
2023-02-14T23:37:31.450Z,9.60
2023-02-14T23:39:52.894Z,8.50
2023-02-14T23:42:14.977Z,8.87
2023-02-14T23:44:36.849Z,9.17
2023-02-14T23:47:00.710Z,8.90
2023-02-14T23:49:23.516Z,8.80
2023-02-14T23:51:47.178Z,9.07
2023-02-14T23:54:09.307Z,9.53
2023-02-14T23:56:30.878Z,8.97
2023-02-14T23:58:52.414Z,8.90
